Time;durP1;ratioP1;P1;durP2;ratioP2;P2;SDS_P1;SDS_P2;PMS_P1;PMS_P2;Temp;Humidity;BMP_temperature;BMP_pressure;BME280_temperature;BME280_humidity;BME280_pressure;Samples;Min_cycle;Max_cycle;Signal;HPM_P1;HPM_P2
2023/04/19 00:00:14;;;;;;;9.53;8.53;;;;;;;11.71;71.01;99806.41;7385823;39;20258;31
2023/04/19 00:05:34;;;;;;;8.53;7.53;;;;;;;11.72;71.11;99807.25;7320050;39;20328;31
2023/04/19 00:11:06;;;;;;;8.20;6.70;;;;;;;11.73;71.01;99807.12;7334108;39;20704;31
2023/04/19 00:21:41;;;;;;;7.47;6.73;;;;;;;11.70;69.80;99801.16;7357168;39;20650;31
2023/04/19 00:32:20;;;;;;;8.07;6.60;;;;;;;11.70;70.73;99806.56;7393091;39;20304;31
2023/04/19 00:42:58;;;;;;;7.90;6.60;;;;;;;11.66;70.52;99797.09;7406122;39;20830;31
2023/04/19 00:48:30;;;;;;;8.47;7.40;;;;;;;11.60;70.31;99785.06;7398237;39;20388;31
2023/04/19 00:54:02;;;;;;;7.50;6.20;;;;;;;11.46;71.18;99785.63;7377420;39;20260;31
2023/04/19 00:59:35;;;;;;;8.17;6.70;;;;;;;11.39;71.14;99786.41;7399279;39;20254;31
2023/04/19 01:04:56;;;;;;;7.33;6.30;;;;;;;11.31;71.04;99784.53;7404019;39;21034;31
2023/04/19 01:10:30;;;;;;;7.80;6.65;;;;;;;11.29;71.12;99783.81;7374780;39;20265;31
2023/04/19 01:16:06;;;;;;;7.10;6.40;;;;;;;11.29;71.13;99776.56;7377909;39;20365;31
2023/04/19 01:21:24;;;;;;;7.37;6.57;;;;;;;11.27;71.56;99769.66;7335118;39;20398;31
2023/04/19 01:27:01;;;;;;;7.07;6.37;;;;;;;11.21;71.92;99771.13;7300855;39;20240;31
2023/04/19 01:32:17;;;;;;;7.53;6.37;;;;;;;11.18;71.54;99765.19;7272583;40;20253;31
2023/04/19 01:37:54;;;;;;;9.45;6.80;;;;;;;11.16;72.08;99769.88;7291549;39;20252;31
2023/04/19 01:43:25;;;;;;;9.00;7.37;;;;;;;11.11;72.84;99750.63;7320826;39;20233;31
2023/04/19 01:48:43;;;;;;;7.63;6.83;;;;;;;11.09;71.78;99752.62;7334427;39;20404;31
2023/04/19 01:54:18;;;;;;;7.57;6.87;;;;;;;11.08;72.17;99746.38;7417538;39;20247;31
2023/04/19 01:59:51;;;;;;;10.13;6.73;;;;;;;11.10;71.87;99744.38;7373121;39;20282;31
2023/04/19 02:05:26;;;;;;;8.93;7.07;;;;;;;11.06;72.32;99737.59;7301428;39;20252;31
2023/04/19 02:16:04;;;;;;;8.44;7.24;;;;;;;11.07;72.38;99730.34;7341397;39;20623;31
2023/04/19 02:26:40;;;;;;;8.67;7.30;;;;;;;11.04;72.36;99734.22;7428274;39;20781;31
2023/04/19 02:37:32;;;;;;;9.43;7.03;;;;;;;10.94;72.99;99725.38;7398796;39;21190;31
2023/04/19 02:48:11;;;;;;;7.93;7.00;;;;;;;10.97;72.77;99716.12;7397036;39;21946;31
2023/04/19 02:53:44;;;;;;;10.00;7.50;;;;;;;10.85;73.99;99721.75;7447156;39;20356;31
2023/04/19 02:59:19;;;;;;;8.33;7.00;;;;;;;10.90;73.22;99712.34;7427914;39;21378;31
2023/04/19 03:04:40;;;;;;;8.53;7.27;;;;;;;10.89;73.37;99713.34;7444275;39;21225;31
2023/04/19 03:15:19;;;;;;;8.33;6.97;;;;;;;10.84;74.05;99706.56;7378579;39;21049;31
2023/04/19 03:20:53;;;;;;;9.05;7.10;;;;;;;10.86;73.72;99709.13;7397742;39;20324;31
2023/04/19 03:26:14;;;;;;;9.03;7.13;;;;;;;10.85;73.69;99702.03;7398409;39;20258;31
2023/04/19 03:31:44;;;;;;;7.90;7.00;;;;;;;10.81;73.76;99695.25;7383182;39;20239;31
2023/04/19 03:37:16;;;;;;;8.50;7.03;;;;;;;10.85;72.96;99693.94;7398337;39;20266;31
2023/04/19 03:42:34;;;;;;;10.10;7.40;;;;;;;10.85;73.55;99694.78;7396820;39;20271;31
2023/04/19 03:48:11;;;;;;;7.85;6.82;;;;;;;10.82;73.29;99681.63;7373609;39;20886;31
2023/04/19 03:53:42;;;;;;;7.37;6.40;;;;;;;10.85;73.34;99677.75;7371476;39;20263;31
2023/04/19 03:59:00;;;;;;;8.27;6.93;;;;;;;10.83;73.08;99680.63;7356403;39;20335;31
2023/04/19 04:04:30;;;;;;;9.37;7.00;;;;;;;10.80;73.22;99677.38;7444341;39;20317;31
2023/04/19 04:10:06;;;;;;;10.70;7.20;;;;;;;10.79;74.02;99676.53;7424567;39;20241;31
2023/04/19 04:15:21;;;;;;;9.13;7.17;;;;;;;10.85;73.35;99683.16;7400520;39;20300;31
2023/04/19 04:20:59;;;;;;;9.97;6.97;;;;;;;10.78;73.53;99685.62;7380505;39;20314;31
2023/04/19 04:26:32;;;;;;;7.33;6.50;;;;;;;10.72;73.75;99675.47;7353762;39;20262;31
2023/04/19 04:31:48;;;;;;;7.53;6.13;;;;;;;10.68;73.41;99674.09;7158289;39;20294;31
2023/04/19 04:42:24;;;;;;;9.70;7.30;;;;;;;10.70;74.02;99680.19;7432444;39;20805;31
2023/04/19 04:53:01;;;;;;;7.62;6.18;;;;;;;10.72;74.21;99682.69;7399079;39;21131;31
2023/04/19 05:03:36;;;;;;;8.80;6.45;;;;;;;10.69;74.24;99686.56;7354789;39;21240;31
2023/04/19 05:09:08;;;;;;;7.17;6.20;;;;;;;10.74;73.76;99684.25;7361252;39;20441;31
2023/04/19 05:14:40;;;;;;;7.67;6.60;;;;;;;10.75;73.76;99694.00;7428833;39;20854;31
2023/04/19 05:20:14;;;;;;;11.12;6.95;;;;;;;10.79;73.44;99692.69;7424672;39;21314;31
2023/04/19 05:30:54;;;;;;;7.25;6.25;;;;;;;10.84;73.64;99697.63;7441924;39;20281;31
2023/04/19 05:41:31;;;;;;;7.57;6.77;;;;;;;10.84;73.79;99706.56;7398273;39;20285;31
2023/04/19 05:52:07;;;;;;;8.40;7.50;;;;;;;10.95;74.21;99694.69;7336184;39;21055;31
2023/04/19 05:57:43;;;;;;;9.33;7.43;;;;;;;10.99;73.89;99696.06;7359071;39;20255;31
2023/04/19 06:03:15;;;;;;;7.70;6.90;;;;;;;11.07;73.96;99700.69;7373721;39;20238;31
2023/04/19 06:08:50;;;;;;;8.97;7.17;;;;;;;11.10;73.74;99705.78;7422290;39;21206;31
2023/04/19 06:14:23;;;;;;;8.03;7.00;;;;;;;11.10;74.18;99706.59;7397791;39;20259;31
2023/04/19 06:19:41;;;;;;;10.17;7.33;;;;;;;11.11;73.58;99700.19;7336263;39;20260;31
2023/04/19 06:25:12;;;;;;;8.07;6.83;;;;;;;11.14;73.57;99702.59;7333065;39;20283;31
2023/04/19 06:30:45;;;;;;;8.37;6.87;;;;;;;11.32;73.86;99710.63;7282860;39;20297;31
2023/04/19 06:36:02;;;;;;;9.60;7.53;;;;;;;11.43;73.37;99706.81;7256232;40;20264;31
2023/04/19 06:41:20;;;;;;;7.70;6.60;;;;;;;11.52;72.82;99712.13;7316679;39;20258;31
2023/04/19 06:46:56;;;;;;;7.95;7.05;;;;;;;11.51;73.11;99704.16;7384174;39;21135;31
2023/04/19 06:52:31;;;;;;;10.00;7.10;;;;;;;11.63;73.07;99701.03;7426327;39;21322;31
2023/04/19 06:57:48;;;;;;;8.30;7.07;;;;;;;11.61;72.88;99705.75;7419445;39;20259;31
2023/04/19 07:03:19;;;;;;;8.93;7.47;;;;;;;11.65;73.04;99706.28;7360566;39;20259;31
2023/04/19 07:08:36;;;;;;;9.30;7.50;;;;;;;11.87;72.81;99700.34;7357636;39;20341;31
2023/04/19 07:14:12;;;;;;;9.87;6.83;;;;;;;11.97;72.50;99702.91;7355535;39;20252;31
2023/04/19 07:19:45;;;;;;;9.23;7.20;;;;;;;12.09;71.76;99694.34;7314885;39;21295;31
2023/04/19 07:25:17;;;;;;;8.40;7.40;;;;;;;12.05;71.70;99698.38;7315227;39;20272;31
2023/04/19 07:30:50;;;;;;;7.65;6.85;;;;;;;12.10;71.42;99692.50;7299986;39;20259;31
2023/04/19 07:36:26;;;;;;;9.57;7.63;;;;;;;12.17;71.82;99682.69;7334914;39;20354;31
2023/04/19 07:41:46;;;;;;;8.67;7.67;;;;;;;12.38;71.45;99677.69;7354311;39;20251;31
2023/04/19 07:47:18;;;;;;;11.50;7.80;;;;;;;12.44;70.75;99677.03;7356830;39;20247;31
2023/04/19 07:52:51;;;;;;;9.10;7.45;;;;;;;12.44;70.80;99670.78;7317313;39;20268;31
2023/04/19 07:58:08;;;;;;;9.63;7.90;;;;;;;12.55;69.96;99678.53;7323579;39;20510;31
2023/04/19 08:03:28;;;;;;;8.17;7.37;;;;;;;12.67;70.11;99676.38;7348898;39;20239;31
2023/04/19 08:09:02;;;;;;;9.03;7.37;;;;;;;12.72;69.85;99669.47;7337478;39;20258;31
2023/04/19 08:14:32;;;;;;;11.70;7.90;;;;;;;12.80;69.52;99666.75;7324905;39;20291;31
2023/04/19 08:20:05;;;;;;;9.13;7.70;;;;;;;12.73;69.18;99665.72;7258338;40;20349;31
2023/04/19 08:25:35;;;;;;;10.60;7.90;;;;;;;12.74;70.21;99672.81;7336115;39;20248;31
2023/04/19 08:31:07;;;;;;;8.60;7.50;;;;;;;12.85;69.88;99671.66;7309010;39;21779;31
2023/04/19 08:36:39;;;;;;;9.83;8.07;;;;;;;12.80;69.51;99676.72;7332740;39;20271;31
2023/04/19 08:42:12;;;;;;;9.80;7.50;;;;;;;12.79;70.13;99672.31;7322745;39;20262;31
2023/04/19 08:47:44;;;;;;;9.17;7.87;;;;;;;12.64;70.54;99670.28;7325137;39;20251;31
2023/04/19 08:53:16;;;;;;;10.30;7.83;;;;;;;12.61;70.76;99661.66;7284527;39;20257;31
2023/04/19 08:58:49;;;;;;;8.80;7.73;;;;;;;12.56;70.39;99655.91;7332000;39;20242;31
2023/04/19 09:04:10;;;;;;;10.00;8.13;;;;;;;12.51;70.20;99651.00;7357539;39;20243;31
2023/04/19 09:09:41;;;;;;;10.07;8.73;;;;;;;12.45;70.51;99650.84;7316076;39;20245;31
2023/04/19 09:15:16;;;;;;;9.70;8.35;;;;;;;12.48;71.60;99642.37;7335338;39;20254;31
2023/04/19 09:20:56;;;;;;;9.43;7.70;;;;;;;12.55;71.43;99633.41;7358650;39;20359;31
2023/04/19 09:26:29;;;;;;;10.30;8.30;;;;;;;12.58;70.98;99640.38;7381048;39;20251;31
2023/04/19 09:31:58;;;;;;;9.53;8.07;;;;;;;12.63;71.95;99630.75;7400838;39;21215;31
2023/04/19 09:37:34;;;;;;;11.37;8.23;;;;;;;12.67;72.20;99627.69;7355095;39;20256;31
2023/04/19 09:43:08;;;;;;;10.60;8.53;;;;;;;12.71;72.41;99618.22;7361088;39;20258;31
2023/04/19 09:48:41;;;;;;;9.20;8.30;;;;;;;12.80;72.19;99612.66;7317286;39;20271;31
2023/04/19 09:53:59;;;;;;;9.83;8.47;;;;;;;12.92;72.67;99605.00;7304351;39;20421;31
2023/04/19 09:59:17;;;;;;;10.70;8.50;;;;;;;13.09;71.86;99595.84;7344664;39;20318;31
2023/04/19 10:04:46;;;;;;;9.83;8.07;;;;;;;13.09;71.96;99593.97;7328065;39;21654;31
2023/04/19 10:10:18;;;;;;;9.37;8.37;;;;;;;13.13;72.34;99586.38;7314284;39;20264;31
2023/04/19 10:15:50;;;;;;;12.40;8.10;;;;;;;13.24;72.69;99588.72;7253167;40;20266;31
2023/04/19 10:21:23;;;;;;;9.50;7.70;;;;;;;13.29;72.01;99589.06;7299856;39;20465;31
2023/04/19 10:31:58;;;;;;;11.77;8.20;;;;;;;13.32;71.12;99583.28;7379481;39;21023;31
2023/04/19 10:37:32;;;;;;;9.68;7.70;;;;;;;13.33;71.26;99582.28;7363214;39;20307;31
2023/04/19 10:43:28;;;;;;;9.23;8.27;;;;;;;13.33;71.84;99570.59;7379055;39;20307;31
2023/04/19 10:49:08;;;;;;;10.65;8.10;;;;;;;13.37;70.75;99574.66;7336548;39;20434;31
2023/04/19 10:54:44;;;;;;;9.83;7.30;;;;;;;13.37;70.24;99561.94;7316437;39;20349;31
2023/04/19 11:00:35;;;;;;;8.53;7.63;;;;;;;13.45;70.37;99548.38;7285157;40;20276;31
2023/04/19 11:11:14;;;;;;;9.53;8.47;;;;;;;13.58;69.27;99544.25;7351421;39;20278;31
2023/04/19 11:16:58;;;;;;;10.00;7.50;;;;;;;13.56;70.10;99532.75;7164101;39;21393;31
2023/04/19 11:27:36;;;;;;;8.45;7.60;;;;;;;13.40;69.22;99526.38;7399821;39;21159;31
2023/04/19 11:33:06;;;;;;;12.10;8.30;;;;;;;13.34;69.15;99529.78;7379039;39;20376;31
2023/04/19 11:38:38;;;;;;;9.87;7.93;;;;;;;13.29;69.79;99515.97;7299131;39;20403;31
2023/04/19 11:44:09;;;;;;;11.13;7.80;;;;;;;13.33;69.68;99509.19;7318782;39;20344;31
2023/04/19 11:49:41;;;;;;;9.13;8.03;;;;;;;13.40;69.91;99502.03;7309738;39;20306;31
2023/04/19 11:55:26;;;;;;;10.53;7.57;;;;;;;13.35;69.46;99499.00;7361250;39;21096;31
2023/04/19 12:01:03;;;;;;;10.87;7.90;;;;;;;13.30;69.70;99493.25;7386476;39;21555;31
2023/04/19 12:06:37;;;;;;;9.17;7.63;;;;;;;13.25;69.32;99502.97;7335960;39;20240;31
2023/04/19 12:11:57;;;;;;;9.45;7.55;;;;;;;13.27;69.77;99490.91;7275511;40;20285;31
2023/04/19 12:17:30;;;;;;;8.13;7.03;;;;;;;13.32;69.55;99488.53;7317665;39;20368;31
2023/04/19 12:22:44;;;;;;;8.47;6.93;;;;;;;13.34;69.27;99472.12;7312135;39;20259;31
2023/04/19 12:28:12;;;;;;;8.80;7.10;;;;;;;13.49;68.78;99478.44;7316895;39;20774;31
2023/04/19 12:33:45;;;;;;;8.13;6.80;;;;;;;13.63;66.93;99469.56;7302789;39;20240;31
2023/04/19 12:39:06;;;;;;;7.90;6.93;;;;;;;13.61;65.23;99468.03;7294847;40;21124;31
2023/04/19 12:44:37;;;;;;;8.45;6.70;;;;;;;13.60;66.19;99463.66;7331712;39;20270;31
2023/04/19 12:50:09;;;;;;;7.03;6.33;;;;;;;13.67;65.59;99457.34;7387210;39;20274;31
2023/04/19 12:55:46;;;;;;;8.67;5.93;;;;;;;13.75;64.93;99453.72;7314157;39;20244;31
2023/04/19 13:01:16;;;;;;;7.00;5.43;;;;;;;13.76;63.72;99442.72;7272559;40;20272;31
2023/04/19 13:06:47;;;;;;;7.87;5.23;;;;;;;13.87;62.66;99431.44;7297638;40;20244;31
2023/04/19 13:12:22;;;;;;;5.30;4.80;;;;;;;14.06;61.86;99421.97;7292374;39;20249;31
2023/04/19 13:17:57;;;;;;;5.57;4.70;;;;;;;14.28;61.69;99412.09;7320192;39;20287;31
2023/04/19 13:28:35;;;;;;;5.95;4.75;;;;;;;14.43;59.73;99403.00;7311815;39;20264;31
2023/04/19 13:34:07;;;;;;;6.50;4.47;;;;;;;14.46;59.56;99396.34;7318854;39;20241;31
2023/04/19 13:39:39;;;;;;;5.80;4.50;;;;;;;14.50;58.98;99386.81;7330856;39;20271;31
2023/04/19 13:45:10;;;;;;;5.17;4.07;;;;;;;14.46;56.75;99384.66;7376723;39;20271;31
2023/04/19 13:50:41;;;;;;;4.35;3.95;;;;;;;14.60;56.77;99376.53;7376245;39;20267;31
2023/04/19 14:01:18;;;;;;;4.20;3.80;;;;;;;15.17;55.24;99349.47;7374365;39;21075;31
2023/04/19 14:06:53;;;;;;;3.80;3.40;;;;;;;15.21;52.77;99355.34;7366215;39;21110;31
2023/04/19 14:12:25;;;;;;;3.63;3.33;;;;;;;15.20;54.18;99338.22;7317066;39;20318;31
2023/04/19 14:17:58;;;;;;;5.15;3.65;;;;;;;15.07;51.30;99335.34;7339146;39;20344;31
2023/04/19 14:23:15;;;;;;;4.33;3.67;;;;;;;14.96;51.54;99325.00;7297276;40;21599;31
2023/04/19 14:28:36;;;;;;;3.50;3.20;;;;;;;15.03;51.11;99319.62;7321397;39;20347;31
2023/04/19 14:34:10;;;;;;;5.80;4.00;;;;;;;15.13;50.74;99329.16;7313772;39;20342;31
2023/04/19 14:39:27;;;;;;;5.40;4.20;;;;;;;15.55;50.95;99311.19;7341692;39;20252;31
2023/04/19 14:44:59;;;;;;;5.45;3.45;;;;;;;15.65;49.71;99307.13;7357880;39;20325;31
2023/04/19 14:50:32;;;;;;;3.80;3.40;;;;;;;15.54;50.00;99296.78;7389484;39;20424;31
2023/04/19 14:56:05;;;;;;;5.30;3.43;;;;;;;15.45;48.87;99291.63;7335985;39;20314;31
2023/04/19 15:01:35;;;;;;;3.95;3.05;;;;;;;15.30;47.56;99281.72;7338386;39;20244;31
2023/04/19 15:07:08;;;;;;;4.23;3.13;;;;;;;15.22;48.44;99284.56;7315371;39;20409;31
2023/04/19 15:12:26;;;;;;;5.47;2.80;;;;;;;15.35;48.87;99281.12;7325951;39;20311;31
2023/04/19 15:17:40;;;;;;;2.95;2.65;;;;;;;15.42;48.78;99273.03;7371702;39;20306;31
2023/04/19 15:23:13;;;;;;;3.30;2.23;;;;;;;15.48;43.77;99272.25;7347832;39;20248;31
2023/04/19 15:28:45;;;;;;;3.37;2.57;;;;;;;15.43;44.41;99272.84;7333996;39;20267;31
2023/04/19 15:34:17;;;;;;;4.03;2.00;;;;;;;15.30;43.42;99270.84;7343605;39;20252;31
2023/04/19 15:39:49;;;;;;;5.93;2.47;;;;;;;15.05;41.84;99274.16;7351387;39;20330;31
2023/04/19 15:45:18;;;;;;;4.07;2.00;;;;;;;15.02;43.26;99280.78;7359816;39;20354;31
2023/04/19 15:50:50;;;;;;;2.73;1.90;;;;;;;14.86;43.23;99272.91;7302989;39;20243;31
2023/04/19 15:56:22;;;;;;;1.93;1.70;;;;;;;14.65;40.06;99264.72;7336456;39;20264;31
2023/04/19 16:01:56;;;;;;;2.10;1.80;;;;;;;14.53;40.73;99280.62;7355254;39;20236;31
2023/04/19 16:07:12;;;;;;;2.53;1.70;;;;;;;14.47;42.44;99276.00;7308372;39;20268;31
2023/04/19 16:12:46;;;;;;;2.30;1.80;;;;;;;14.34;41.19;99279.34;7273089;40;21205;31
2023/04/19 16:18:03;;;;;;;2.70;1.80;;;;;;;14.22;41.59;99267.28;7273703;39;20278;31
2023/04/19 16:23:19;;;;;;;4.97;2.00;;;;;;;14.13;41.20;99278.44;7319164;39;20234;31
2023/04/19 16:28:51;;;;;;;2.97;1.80;;;;;;;14.05;41.37;99276.63;7362816;39;21624;31
2023/04/19 16:34:05;;;;;;;2.00;1.80;;;;;;;14.07;42.54;99273.75;7275756;40;20323;31
2023/04/19 16:39:37;;;;;;;3.60;1.77;;;;;;;13.98;42.24;99276.53;7335595;39;20278;31
2023/04/19 16:45:10;;;;;;;2.87;1.83;;;;;;;13.92;41.58;99277.28;7327577;39;20245;31
2023/04/19 16:50:26;;;;;;;7.25;5.70;;;;;;;13.96;49.11;99285.88;7365154;39;20265;31
2023/04/19 16:56:02;;;;;;;12.53;8.87;;;;;;;13.91;56.95;99291.84;7384218;39;20405;31
2023/04/19 17:01:32;;;;;;;7.03;6.33;;;;;;;13.88;56.69;99289.53;7376460;39;20256;31
2023/04/19 17:06:50;;;;;;;4.43;3.83;;;;;;;13.79;54.96;99295.19;7319332;39;20275;31
2023/04/19 17:12:08;;;;;;;5.95;3.50;;;;;;;13.47;55.29;99299.91;7294910;39;20278;31
2023/04/19 17:17:43;;;;;;;3.45;3.15;;;;;;;13.39;55.19;99293.72;7313742;39;20240;31
2023/04/19 17:23:16;;;;;;;4.40;4.00;;;;;;;13.41;55.70;99297.94;7306927;39;20465;31
2023/04/19 17:28:51;;;;;;;6.30;4.90;;;;;;;13.36;55.92;99283.25;7369255;39;20314;31
2023/04/19 17:34:26;;;;;;;5.70;5.00;;;;;;;13.30;55.98;99294.78;7396395;39;20240;31
2023/04/19 17:39:44;;;;;;;6.07;3.40;;;;;;;13.32;56.07;99285.50;7149254;39;21290;31
2023/04/19 17:45:00;;;;;;;4.77;3.03;;;;;;;13.25;55.79;99291.81;7397965;39;20275;31
2023/04/19 17:50:34;;;;;;;3.70;3.30;;;;;;;13.12;56.68;99297.00;7378568;39;20281;31
2023/04/19 18:01:07;;;;;;;4.80;3.30;;;;;;;13.07;57.05;99300.22;7357989;39;21093;31
2023/04/19 18:06:37;;;;;;;6.03;3.37;;;;;;;13.05;56.86;99304.94;7355186;39;20243;31
2023/04/19 18:11:55;;;;;;;4.63;3.30;;;;;;;13.05;57.07;99302.25;7308796;39;20336;31
2023/04/19 18:17:14;;;;;;;3.25;2.95;;;;;;;13.04;57.10;99306.81;7315457;39;20255;31
2023/04/19 18:22:45;;;;;;;3.47;3.17;;;;;;;13.07;57.34;99298.34;7304705;39;20356;31
2023/04/19 18:28:20;;;;;;;3.83;3.20;;;;;;;12.97;57.27;99321.25;7314484;39;20244;31
2023/04/19 18:33:37;;;;;;;3.30;2.57;;;;;;;12.82;55.35;99314.87;7284142;39;20240;31
2023/04/19 18:39:13;;;;;;;4.40;2.65;;;;;;;12.66;55.02;99318.53;7356088;39;20352;31
2023/04/19 18:44:29;;;;;;;4.00;3.00;;;;;;;12.67;55.81;99324.78;7339136;39;20393;31
2023/04/19 18:49:48;;;;;;;4.40;3.00;;;;;;;12.58;57.06;99332.94;7370008;39;21040;31
2023/04/19 19:00:25;;;;;;;3.50;3.10;;;;;;;12.49;58.14;99342.12;7363293;39;21170;31
2023/04/19 19:05:42;;;;;;;3.35;3.00;;;;;;;12.46;58.45;99355.97;7336097;39;20243;31
2023/04/19 19:11:18;;;;;;;4.13;3.10;;;;;;;12.34;57.31;99353.81;7337033;39;20364;31
2023/04/19 19:16:47;;;;;;;4.37;2.53;;;;;;;12.34;54.46;99361.91;7382124;39;21161;31
2023/04/19 19:22:16;;;;;;;4.20;2.30;;;;;;;12.20;53.81;99369.72;7398163;39;20354;31
2023/04/19 19:27:33;;;;;;;2.23;1.97;;;;;;;12.06;49.44;99380.41;7358076;39;20275;31
2023/04/19 19:33:06;;;;;;;3.60;1.85;;;;;;;11.82;48.96;99373.19;7422705;39;20262;31
2023/04/19 19:38:36;;;;;;;2.97;1.90;;;;;;;11.71;49.64;99377.06;7358240;39;20229;31
2023/04/19 19:43:53;;;;;;;3.47;2.20;;;;;;;11.58;48.97;99376.69;7323481;39;20333;31
2023/04/19 19:49:22;;;;;;;2.60;2.15;;;;;;;11.44;47.88;99363.88;7357011;39;20243;31
2023/04/19 19:54:39;;;;;;;3.63;2.00;;;;;;;11.45;49.69;99376.34;7358192;39;20444;31
2023/04/19 20:00:11;;;;;;;3.07;2.23;;;;;;;11.25;48.35;99380.38;7322420;39;20239;31
2023/04/19 20:05:42;;;;;;;3.00;2.25;;;;;;;11.32;50.20;99388.66;7376437;39;21158;31
2023/04/19 20:11:14;;;;;;;7.13;2.70;;;;;;;11.38;50.74;99391.53;7355547;39;20368;31
2023/04/19 20:21:50;;;;;;;3.08;2.28;;;;;;;10.83;50.51;99384.00;7254735;40;20277;31
2023/04/19 20:27:06;;;;;;;3.58;2.37;;;;;;;10.65;51.13;99394.06;7283358;39;20276;31
2023/04/19 20:38:01;;;;;;;4.37;2.33;;;;;;;10.48;52.70;99394.13;7374658;39;21125;31
2023/04/19 20:43:34;;;;;;;6.03;2.37;;;;;;;10.51;53.46;99386.56;7405813;39;20238;31
2023/04/19 20:48:52;;;;;;;3.33;2.73;;;;;;;10.44;53.78;99385.53;7383605;39;20361;31
2023/04/19 20:59:29;;;;;;;3.97;2.60;;;;;;;10.14;54.35;99388.69;7340802;39;20998;31
2023/04/19 21:04:49;;;;;;;3.40;2.20;;;;;;;10.03;55.03;99378.19;7309134;39;20323;31
2023/04/19 21:15:26;;;;;;;3.30;2.33;;;;;;;9.96;55.04;99373.44;7358406;39;20383;31
2023/04/19 21:25:47;;;;;;;3.05;2.40;;;;;;;9.64;55.73;99370.53;7419693;39;21032;31
2023/04/19 21:31:23;;;;;;;3.90;2.40;;;;;;;9.48;55.36;99370.38;7420898;39;21434;31
2023/04/19 21:36:55;;;;;;;3.10;2.20;;;;;;;9.39;55.22;99366.78;7374991;39;20378;31
2023/04/19 21:42:30;;;;;;;3.03;2.40;;;;;;;9.27;55.80;99361.78;7355646;39;20248;31
2023/04/19 21:48:01;;;;;;;3.90;2.60;;;;;;;9.05;55.92;99366.63;7360657;39;20318;31
2023/04/19 21:53:18;;;;;;;3.63;2.77;;;;;;;9.04;56.27;99373.00;7393587;39;20258;31
2023/04/19 21:58:39;;;;;;;4.57;2.70;;;;;;;8.99;55.89;99367.22;7398639;39;20247;31
2023/04/19 22:04:15;;;;;;;3.50;2.50;;;;;;;8.97;56.05;99369.25;7375217;39;20254;31
2023/04/19 22:09:51;;;;;;;6.37;2.40;;;;;;;9.12;55.42;99366.03;7394881;39;20255;31
2023/04/19 22:15:11;;;;;;;4.73;2.20;;;;;;;9.16;55.72;99359.34;7376504;39;20321;31
2023/04/19 22:20:45;;;;;;;2.35;2.05;;;;;;;9.07;56.18;99355.72;7341878;39;20247;31
2023/04/19 22:26:16;;;;;;;2.57;2.13;;;;;;;8.88;56.50;99358.56;7395665;39;20233;31
2023/04/19 22:31:48;;;;;;;4.03;2.17;;;;;;;8.77;56.12;99351.56;7353650;39;20406;31
2023/04/19 22:37:21;;;;;;;5.00;2.90;;;;;;;8.76;56.36;99349.88;7338078;39;20240;31
2023/04/19 22:42:53;;;;;;;3.40;2.50;;;;;;;8.72;56.56;99340.41;7336771;39;20255;31
2023/04/19 22:53:31;;;;;;;2.90;2.60;;;;;;;8.45;56.92;99327.00;7364938;39;21293;31
2023/04/19 22:58:48;;;;;;;4.87;2.50;;;;;;;8.43;57.44;99323.63;7376938;39;20244;31
2023/04/19 23:04:22;;;;;;;4.03;2.50;;;;;;;8.46;56.65;99317.97;7376196;39;20238;31
2023/04/19 23:09:53;;;;;;;3.80;2.60;;;;;;;8.43;56.51;99315.56;7355922;39;20326;31
2023/04/19 23:15:29;;;;;;;3.27;2.37;;;;;;;8.34;56.25;99301.19;7351494;39;20235;31
2023/04/19 23:21:00;;;;;;;2.60;2.30;;;;;;;8.27;57.29;99292.03;7334712;39;20268;31
2023/04/19 23:26:35;;;;;;;3.60;2.50;;;;;;;8.26;57.11;99289.47;7297967;39;20267;31
2023/04/19 23:32:07;;;;;;;2.50;2.30;;;;;;;8.23;57.87;99281.72;7313244;39;20263;31
2023/04/19 23:37:40;;;;;;;3.27;2.63;;;;;;;8.19;57.75;99280.34;7343892;39;20243;31
2023/04/19 23:43:13;;;;;;;4.43;2.77;;;;;;;8.14;57.36;99270.91;7416812;39;20341;31
2023/04/19 23:48:48;;;;;;;3.60;2.70;;;;;;;8.14;56.77;99254.78;7423114;39;20329;31
2023/04/19 23:54:25;;;;;;;4.07;2.40;;;;;;;8.20;56.99;99257.88;7429975;39;21072;31
